createdAt,value
2023-03-13T00:01:32.166Z,23.43
2023-03-13T00:04:00.771Z,19.97
2023-03-13T00:06:33.365Z,25.37
2023-03-13T00:09:02.407Z,26.10
2023-03-13T00:11:32.753Z,28.93
2023-03-13T00:14:03.454Z,21.73
2023-03-13T00:16:32.451Z,23.17
2023-03-13T00:19:00.823Z,19.57
2023-03-13T00:21:30.681Z,25.03
2023-03-13T00:24:00.233Z,20.93
2023-03-13T00:26:30.240Z,22.27
2023-03-13T00:29:00.522Z,17.80
2023-03-13T00:31:30.941Z,25.60
2023-03-13T00:34:01.229Z,17.43
2023-03-13T00:36:31.772Z,26.60
2023-03-13T00:39:00.764Z,20.33
2023-03-13T00:41:31.029Z,24.33
2023-03-13T00:44:01.112Z,22.27
2023-03-13T00:46:31.472Z,22.10
2023-03-13T00:48:59.935Z,25.23
2023-03-13T00:51:29.469Z,23.77
2023-03-13T00:54:00.499Z,22.83
2023-03-13T00:56:29.846Z,20.40
2023-03-13T00:58:58.441Z,25.20
2023-03-13T01:01:30.815Z,26.33
2023-03-13T01:04:02.012Z,21.00
2023-03-13T01:06:34.094Z,23.77
2023-03-13T01:09:03.037Z,22.73
2023-03-13T01:11:33.282Z,16.60
2023-03-13T01:14:05.130Z,25.47
2023-03-13T01:16:36.450Z,21.60
2023-03-13T01:19:07.093Z,25.50
2023-03-13T01:21:35.536Z,27.97
2023-03-13T01:24:05.679Z,27.83
2023-03-13T01:26:34.280Z,25.53
2023-03-13T01:29:02.859Z,21.80
2023-03-13T01:31:33.573Z,20.43
2023-03-13T01:34:05.480Z,19.00
2023-03-13T01:36:34.665Z,24.27
2023-03-13T01:39:03.157Z,22.60
2023-03-13T01:41:32.391Z,26.27
2023-03-13T01:44:01.214Z,24.73
2023-03-13T01:46:38.045Z,19.53
2023-03-13T01:49:24.951Z,18.17
2023-03-13T01:52:05.403Z,22.10
2023-03-13T01:54:41.850Z,15.90
2023-03-13T01:57:18.072Z,20.93
2023-03-13T01:59:50.251Z,18.80
2023-03-13T02:02:19.183Z,24.20
2023-03-13T02:04:53.100Z,25.27
2023-03-13T02:07:25.438Z,19.17
2023-03-13T02:09:57.027Z,22.37
2023-03-13T02:12:30.547Z,20.80
2023-03-13T02:15:00.252Z,16.10
2023-03-13T02:17:29.103Z,22.23
2023-03-13T02:19:58.832Z,23.70
2023-03-13T02:22:33.102Z,18.07
2023-03-13T02:25:09.084Z,14.60
2023-03-13T02:27:39.201Z,18.63
2023-03-13T02:30:10.070Z,14.03
2023-03-13T02:32:38.870Z,15.20
2023-03-13T02:35:11.607Z,17.43
2023-03-13T02:37:42.055Z,12.20
2023-03-13T02:40:19.395Z,12.67
2023-03-13T02:42:52.098Z,16.73
2023-03-13T02:45:20.921Z,17.53
2023-03-13T02:47:50.035Z,13.10
2023-03-13T02:50:19.236Z,17.33
2023-03-13T02:52:50.735Z,11.87
2023-03-13T02:55:24.230Z,14.93
2023-03-13T02:57:54.040Z,9.33
2023-03-13T03:00:26.766Z,10.23
2023-03-13T03:02:56.620Z,9.93
2023-03-13T03:05:25.258Z,12.33
2023-03-13T03:07:53.901Z,6.93
2023-03-13T03:10:22.362Z,5.73
2023-03-13T03:12:51.346Z,12.40
2023-03-13T03:15:22.831Z,9.07
2023-03-13T03:17:51.457Z,8.93
2023-03-13T03:20:19.922Z,10.57
2023-03-13T03:22:48.783Z,7.83
2023-03-13T03:25:17.881Z,7.80
2023-03-13T03:27:46.463Z,9.63
2023-03-13T03:30:15.597Z,7.87
2023-03-13T03:32:45.582Z,7.10
2023-03-13T03:35:14.185Z,9.17
2023-03-13T03:37:42.801Z,9.43
2023-03-13T03:40:12.914Z,10.07
2023-03-13T03:42:41.325Z,9.23
2023-03-13T03:45:10.695Z,9.80
2023-03-13T03:47:39.077Z,11.77
2023-03-13T03:50:11.300Z,5.80
2023-03-13T03:52:48.376Z,7.97
2023-03-13T03:55:17.434Z,7.17
2023-03-13T03:57:45.932Z,4.30
2023-03-13T04:00:21.212Z,8.53
2023-03-13T04:02:54.001Z,6.90
2023-03-13T04:05:24.311Z,5.63
2023-03-13T04:07:53.080Z,6.73
2023-03-13T04:10:21.451Z,5.77
2023-03-13T04:12:49.832Z,6.07
2023-03-13T04:15:18.457Z,4.67
2023-03-13T04:17:46.995Z,7.37
2023-03-13T04:20:16.489Z,5.13
2023-03-13T04:22:46.551Z,4.50
2023-03-13T04:25:16.718Z,8.43
2023-03-13T04:27:45.946Z,8.03
2023-03-13T04:30:17.585Z,5.27
2023-03-13T04:33:05.476Z,5.33
2023-03-13T04:35:52.808Z,7.70
2023-03-13T04:38:52.044Z,4.43
2023-03-13T04:41:43.647Z,6.03
2023-03-13T04:44:38.687Z,6.50
2023-03-13T04:47:20.570Z,8.10
2023-03-13T04:50:12.264Z,7.20
2023-03-13T04:52:52.578Z,8.30
2023-03-13T04:55:38.769Z,7.23
2023-03-13T04:58:25.847Z,7.27
2023-03-13T05:01:07.312Z,6.37
2023-03-13T05:03:54.081Z,4.87
2023-03-13T05:06:51.705Z,7.23
2023-03-13T05:09:32.102Z,5.50
2023-03-13T05:12:22.648Z,6.67
2023-03-13T05:15:07.653Z,6.50
2023-03-13T05:18:08.074Z,4.47
2023-03-13T05:20:49.172Z,6.70
2023-03-13T05:23:28.523Z,5.83
2023-03-13T05:26:23.015Z,5.23
2023-03-13T05:29:25.293Z,5.70
2023-03-13T05:32:01.410Z,10.40
2023-03-13T05:34:58.904Z,6.00
2023-03-13T05:37:46.391Z,7.73
2023-03-13T05:40:18.379Z,5.60
2023-03-13T05:43:02.823Z,7.37
2023-03-13T05:45:55.655Z,5.50
2023-03-13T05:48:38.076Z,4.67
2023-03-13T05:51:17.585Z,4.80
2023-03-13T05:54:14.974Z,4.03
2023-03-13T05:57:04.035Z,5.50
2023-03-13T06:00:06.189Z,3.50
2023-03-13T06:03:13.884Z,7.57
2023-03-13T06:05:45.810Z,6.63
2023-03-13T06:08:26.750Z,3.40
2023-03-13T06:10:55.263Z,6.07
2023-03-13T06:13:23.876Z,5.57
2023-03-13T06:15:56.073Z,4.73
2023-03-13T06:18:59.724Z,8.37
2023-03-13T06:21:28.051Z,4.80
2023-03-13T06:23:56.529Z,6.57
2023-03-13T06:26:26.179Z,5.10
2023-03-13T06:28:54.788Z,6.53
2023-03-13T06:31:23.386Z,8.37
2023-03-13T06:33:54.671Z,4.50
2023-03-13T06:36:25.934Z,3.97
2023-03-13T06:38:54.505Z,7.53
2023-03-13T06:41:22.957Z,5.67
2023-03-13T06:43:51.566Z,6.97
2023-03-13T06:46:22.278Z,5.30
2023-03-13T06:48:50.968Z,6.90
2023-03-13T06:51:21.188Z,4.03
2023-03-13T06:53:52.897Z,7.27
2023-03-13T06:56:22.096Z,5.40
2023-03-13T06:58:51.149Z,4.17
2023-03-13T07:01:19.782Z,5.00
2023-03-13T07:03:49.389Z,8.03
2023-03-13T07:06:18.561Z,9.23
2023-03-13T07:08:47.601Z,6.10
2023-03-13T07:11:17.513Z,10.73
2023-03-13T07:13:46.013Z,8.57
2023-03-13T07:16:15.409Z,9.07
2023-03-13T07:18:44.973Z,6.37
2023-03-13T07:21:13.426Z,8.40
2023-03-13T07:23:42.253Z,8.90
2023-03-13T07:26:13.573Z,7.43
2023-03-13T07:28:44.276Z,6.83
2023-03-13T07:31:15.658Z,6.43
2023-03-13T07:33:44.966Z,9.03
2023-03-13T07:36:15.553Z,7.13
2023-03-13T07:38:44.640Z,9.27
2023-03-13T07:41:14.441Z,10.87
2023-03-13T07:43:44.411Z,7.33
2023-03-13T07:46:14.468Z,8.23
2023-03-13T07:48:44.408Z,10.33
2023-03-13T07:51:16.571Z,7.10
2023-03-13T07:53:47.403Z,15.00
2023-03-13T07:56:17.044Z,8.47
2023-03-13T07:58:47.675Z,8.83
2023-03-13T08:01:18.283Z,7.97
2023-03-13T08:03:49.386Z,8.37
2023-03-13T08:06:20.058Z,11.00
2023-03-13T08:08:49.142Z,8.40
2023-03-13T08:11:19.594Z,9.23
2023-03-13T08:13:50.683Z,8.77
2023-03-13T08:16:20.675Z,11.07
2023-03-13T08:18:50.779Z,7.73
2023-03-13T08:21:21.138Z,8.73
2023-03-13T08:23:49.710Z,8.13
2023-03-13T08:26:20.762Z,6.53
2023-03-13T08:28:56.082Z,8.83
2023-03-13T08:31:26.026Z,8.50
2023-03-13T08:33:54.762Z,9.30
2023-03-13T08:36:25.232Z,13.93
2023-03-13T08:38:55.204Z,8.53
2023-03-13T08:41:25.725Z,10.10
2023-03-13T08:43:56.399Z,10.00
2023-03-13T08:46:25.811Z,8.70
2023-03-13T08:48:55.635Z,11.70
2023-03-13T08:51:25.849Z,6.33
2023-03-13T08:53:56.129Z,11.60
2023-03-13T08:56:25.805Z,10.73
2023-03-13T08:58:57.261Z,9.47
2023-03-13T09:01:31.256Z,12.07
2023-03-13T09:04:03.455Z,6.87
2023-03-13T09:06:32.601Z,10.20
2023-03-13T09:09:01.133Z,7.00
2023-03-13T09:11:29.878Z,12.93
2023-03-13T09:14:00.383Z,10.70
2023-03-13T09:16:30.840Z,7.70
2023-03-13T09:19:00.569Z,8.27
2023-03-13T09:21:30.767Z,5.97
2023-03-13T09:23:59.579Z,6.33
2023-03-13T09:26:29.208Z,11.60
2023-03-13T09:28:59.242Z,7.40
2023-03-13T09:31:37.414Z,13.00
2023-03-13T09:34:05.956Z,10.60
2023-03-13T09:36:34.481Z,6.60
2023-03-13T09:39:02.942Z,6.13
2023-03-13T09:41:37.961Z,6.30
2023-03-13T09:44:14.551Z,7.20
2023-03-13T09:46:49.482Z,7.37
2023-03-13T09:49:29.318Z,8.27
2023-03-13T09:52:05.547Z,5.07
2023-03-13T09:54:39.546Z,10.03
2023-03-13T09:57:16.622Z,6.80
2023-03-13T09:59:52.837Z,5.27
2023-03-13T10:02:29.931Z,5.57
2023-03-13T10:05:16.558Z,3.47
2023-03-13T10:07:45.410Z,11.27
2023-03-13T10:10:18.212Z,5.53
2023-03-13T10:12:48.706Z,5.53
2023-03-13T10:15:31.969Z,4.50
2023-03-13T10:18:05.526Z,6.50
2023-03-13T10:20:36.725Z,6.97
2023-03-13T10:23:15.694Z,7.33
2023-03-13T10:25:44.143Z,6.37
2023-03-13T10:28:14.496Z,3.87
2023-03-13T10:30:49.521Z,6.40
2023-03-13T10:33:21.968Z,6.30
2023-03-13T10:36:06.932Z,9.27
2023-03-13T10:38:46.497Z,7.13
2023-03-13T10:41:38.606Z,3.50
2023-03-13T10:44:16.314Z,9.00
2023-03-13T10:46:48.988Z,3.83
2023-03-13T10:49:19.924Z,2.93
2023-03-13T10:51:50.356Z,3.83
2023-03-13T10:54:25.836Z,3.80
2023-03-13T10:57:10.515Z,4.07
2023-03-13T10:59:43.294Z,5.30
2023-03-13T11:02:24.033Z,2.67
2023-03-13T11:04:53.949Z,3.97
2023-03-13T11:07:28.079Z,2.87
2023-03-13T11:10:00.586Z,3.20
2023-03-13T11:12:29.505Z,2.97
2023-03-13T11:14:59.298Z,6.63
2023-03-13T11:17:38.746Z,4.50
2023-03-13T11:20:16.814Z,4.80
2023-03-13T11:22:55.048Z,3.17
2023-03-13T11:25:36.734Z,2.70
2023-03-13T11:28:31.334Z,6.43
2023-03-13T11:31:10.987Z,3.50
2023-03-13T11:33:53.346Z,2.23
2023-03-13T11:36:27.694Z,4.30
2023-03-13T11:39:04.453Z,1.70
2023-03-13T11:41:44.537Z,6.43
2023-03-13T11:44:25.248Z,2.70
2023-03-13T11:47:14.274Z,1.47
2023-03-13T11:50:02.680Z,1.13
2023-03-13T11:52:49.528Z,4.47
2023-03-13T11:55:26.706Z,4.10
2023-03-13T11:58:06.949Z,2.30
2023-03-13T12:00:40.232Z,3.90
2023-03-13T12:03:17.819Z,1.27
2023-03-13T12:05:52.770Z,1.60
2023-03-13T12:08:26.703Z,3.80
2023-03-13T12:11:06.540Z,3.37
2023-03-13T12:13:39.521Z,1.83
2023-03-13T12:16:13.700Z,3.77
2023-03-13T12:18:45.221Z,2.70
2023-03-13T12:21:21.228Z,4.43
2023-03-13T12:23:59.011Z,1.73
2023-03-13T12:26:35.696Z,5.53
2023-03-13T12:29:13.616Z,2.70
2023-03-13T12:31:46.616Z,2.80
2023-03-13T12:34:21.937Z,4.10
2023-03-13T12:36:56.862Z,2.90
2023-03-13T12:39:34.589Z,3.10
2023-03-13T12:42:18.426Z,2.93
2023-03-13T12:44:47.432Z,2.13
2023-03-13T12:47:23.597Z,3.27
2023-03-13T12:50:17.940Z,1.17
2023-03-13T12:53:04.588Z,1.80
2023-03-13T12:55:56.424Z,1.50
2023-03-13T12:58:31.515Z,1.60
2023-03-13T13:01:05.587Z,3.80
2023-03-13T13:03:37.940Z,3.13
2023-03-13T13:06:11.724Z,2.03
2023-03-13T13:08:44.088Z,1.43
2023-03-13T13:11:50.199Z,1.30
2023-03-13T13:14:52.006Z,1.07
2023-03-13T13:17:25.946Z,1.67
2023-03-13T13:19:55.165Z,3.57
2023-03-13T13:22:52.752Z,1.63
2023-03-13T13:25:33.649Z,2.30
2023-03-13T13:28:34.029Z,1.13
2023-03-13T13:31:03.357Z,6.03
2023-03-13T13:33:41.256Z,1.33
2023-03-13T13:36:42.128Z,2.80
2023-03-13T13:39:36.868Z,3.50
2023-03-13T13:42:42.040Z,3.07
2023-03-13T13:45:27.848Z,4.60
2023-03-13T13:48:22.745Z,2.10
2023-03-13T13:51:36.599Z,3.60
2023-03-13T13:54:18.029Z,2.43
2023-03-13T13:56:49.797Z,3.13
2023-03-13T13:59:34.255Z,1.90
2023-03-13T14:02:31.800Z,3.03
2023-03-13T14:05:06.662Z,5.67
2023-03-13T14:07:49.082Z,1.07
2023-03-13T14:10:27.274Z,0.80
2023-03-13T14:12:57.990Z,3.33
2023-03-13T14:15:28.118Z,2.40
2023-03-13T14:18:01.030Z,1.93
2023-03-13T14:20:33.326Z,1.70
2023-03-13T14:23:03.898Z,2.73
2023-03-13T14:25:44.808Z,1.73
2023-03-13T14:28:25.293Z,1.07
2023-03-13T14:30:57.937Z,2.90
2023-03-13T14:33:28.726Z,2.20
2023-03-13T14:35:57.946Z,3.23
2023-03-13T14:38:30.064Z,1.20
2023-03-13T14:40:58.715Z,0.80
2023-03-13T14:43:34.832Z,3.33
2023-03-13T14:46:15.840Z,3.17
2023-03-13T14:48:46.073Z,3.00
2023-03-13T14:51:22.489Z,2.43
2023-03-13T14:53:58.933Z,3.10
2023-03-13T14:56:36.837Z,1.60
2023-03-13T14:59:10.333Z,4.93
2023-03-13T15:01:38.682Z,1.83
2023-03-13T15:04:08.646Z,4.40
2023-03-13T15:06:37.201Z,4.30
2023-03-13T15:09:21.176Z,5.53
2023-03-13T15:11:58.935Z,2.20
2023-03-13T15:14:39.542Z,4.53
2023-03-13T15:17:17.705Z,2.60
2023-03-13T15:19:52.404Z,3.37
2023-03-13T15:22:28.178Z,5.13
2023-03-13T15:25:06.085Z,3.57
2023-03-13T15:27:35.916Z,2.00
2023-03-13T15:30:05.329Z,2.60
2023-03-13T15:32:36.051Z,2.50
2023-03-13T15:35:22.767Z,3.33
2023-03-13T15:37:51.589Z,4.63
2023-03-13T15:40:20.821Z,2.53
2023-03-13T15:42:49.341Z,6.87
2023-03-13T15:45:18.095Z,2.33
2023-03-13T15:47:48.975Z,4.70
2023-03-13T15:50:22.527Z,4.67
2023-03-13T15:52:51.212Z,3.73
2023-03-13T15:55:19.773Z,7.80
2023-03-13T15:57:50.663Z,2.80
2023-03-13T16:00:22.915Z,7.17
2023-03-13T16:02:51.872Z,3.13
2023-03-13T16:05:21.713Z,4.47
2023-03-13T16:07:50.231Z,4.90
2023-03-13T16:10:23.852Z,5.87
2023-03-13T16:12:53.872Z,3.00
2023-03-13T16:15:22.608Z,4.63
2023-03-13T16:17:51.289Z,10.83
2023-03-13T16:20:23.821Z,6.30
2023-03-13T16:22:53.761Z,3.67
2023-03-13T16:25:23.238Z,5.63
2023-03-13T16:27:53.579Z,5.37
2023-03-13T16:30:25.033Z,8.83
2023-03-13T16:32:53.612Z,5.37
2023-03-13T16:35:24.229Z,4.33
2023-03-13T16:37:52.739Z,4.10
2023-03-13T16:40:23.292Z,4.30
2023-03-13T16:42:51.930Z,4.43
2023-03-13T16:45:20.728Z,4.37
2023-03-13T16:47:50.702Z,4.47
2023-03-13T16:50:25.293Z,4.57
2023-03-13T16:52:54.826Z,5.43
2023-03-13T16:55:28.333Z,5.80
2023-03-13T16:57:57.276Z,6.10
2023-03-13T17:00:27.495Z,4.67
2023-03-13T17:02:57.528Z,4.60
2023-03-13T17:05:28.457Z,11.00
2023-03-13T17:07:57.018Z,8.40
2023-03-13T17:10:28.501Z,5.93
2023-03-13T17:12:57.545Z,7.97
2023-03-13T17:15:27.881Z,4.80
2023-03-13T17:17:56.512Z,6.07
2023-03-13T17:20:28.310Z,6.50
2023-03-13T17:22:57.373Z,6.27
2023-03-13T17:25:26.248Z,6.27
2023-03-13T17:27:55.165Z,6.37
2023-03-13T17:30:26.071Z,10.37
2023-03-13T17:32:54.704Z,9.27
2023-03-13T17:35:24.273Z,6.07
2023-03-13T17:37:54.351Z,4.87
2023-03-13T17:40:24.695Z,7.67
2023-03-13T17:42:53.107Z,10.13
2023-03-13T17:45:22.879Z,10.03
2023-03-13T17:47:51.375Z,6.67
2023-03-13T17:50:22.470Z,5.33
2023-03-13T17:52:51.538Z,7.43
2023-03-13T17:55:21.696Z,4.53
2023-03-13T17:57:50.202Z,7.57
2023-03-13T18:00:24.473Z,7.60
2023-03-13T18:02:53.073Z,6.07
2023-03-13T18:05:21.898Z,7.63
2023-03-13T18:07:50.877Z,7.73
2023-03-13T18:10:23.391Z,4.83
2023-03-13T18:12:52.937Z,11.77
2023-03-13T18:15:26.972Z,5.30
2023-03-13T18:17:55.442Z,11.13
2023-03-13T18:20:26.138Z,13.50
2023-03-13T18:22:59.527Z,8.13
2023-03-13T18:25:30.531Z,5.97
2023-03-13T18:27:59.327Z,6.07
2023-03-13T18:30:28.279Z,8.07
2023-03-13T18:32:56.926Z,6.93
2023-03-13T18:35:25.628Z,9.80
2023-03-13T18:37:54.143Z,9.40
2023-03-13T18:40:25.281Z,7.63
2023-03-13T18:42:55.603Z,8.27
2023-03-13T18:45:26.523Z,8.80
2023-03-13T18:47:55.136Z,9.53
2023-03-13T18:50:26.675Z,10.53
2023-03-13T18:52:55.576Z,11.43
2023-03-13T18:55:24.964Z,10.77
2023-03-13T18:57:55.833Z,9.17
2023-03-13T19:00:27.624Z,7.67
2023-03-13T19:02:56.296Z,9.73
2023-03-13T19:05:25.451Z,6.63
2023-03-13T19:07:53.920Z,6.17
2023-03-13T19:10:25.314Z,7.37
2023-03-13T19:12:56.185Z,10.20
2023-03-13T19:15:28.523Z,8.97
2023-03-13T19:17:57.571Z,7.03
2023-03-13T19:20:28.598Z,7.23
2023-03-13T19:23:00.977Z,5.60
2023-03-13T19:25:29.835Z,10.13
2023-03-13T19:27:59.692Z,8.80
2023-03-13T19:30:29.700Z,7.60
2023-03-13T19:32:58.512Z,7.20
2023-03-13T19:35:30.441Z,10.67
2023-03-13T19:37:59.013Z,9.90
2023-03-13T19:40:29.667Z,6.13
2023-03-13T19:42:59.452Z,5.83
2023-03-13T19:45:27.877Z,6.33
2023-03-13T19:47:56.451Z,8.60
2023-03-13T19:50:27.785Z,7.87
2023-03-13T19:52:56.504Z,9.23
2023-03-13T19:55:24.943Z,10.40
2023-03-13T19:57:53.413Z,10.43
2023-03-13T20:00:25.416Z,8.00
2023-03-13T20:02:55.361Z,7.40
2023-03-13T20:05:24.523Z,9.03
2023-03-13T20:07:55.470Z,7.00
2023-03-13T20:10:24.504Z,7.17
2023-03-13T20:12:53.757Z,11.63
2023-03-13T20:15:23.675Z,9.10
2023-03-13T20:17:52.308Z,11.80
2023-03-13T20:20:21.054Z,8.90
2023-03-13T20:22:49.617Z,9.87
2023-03-13T20:25:18.176Z,9.93
2023-03-13T20:27:46.600Z,11.07
2023-03-13T20:30:15.149Z,12.93
2023-03-13T20:32:57.052Z,9.83
2023-03-13T20:35:29.296Z,6.13
2023-03-13T20:37:59.862Z,8.53
2023-03-13T20:40:28.668Z,9.87
2023-03-13T20:42:58.364Z,15.17
2023-03-13T20:45:28.475Z,9.47
2023-03-13T20:47:58.885Z,9.43
2023-03-13T20:50:27.486Z,6.57
2023-03-13T20:52:56.561Z,5.97
2023-03-13T20:55:24.995Z,11.20
2023-03-13T20:57:55.828Z,8.10
2023-03-13T21:00:24.508Z,12.87
2023-03-13T21:02:54.384Z,13.33
2023-03-13T21:05:24.360Z,7.17
2023-03-13T21:07:52.888Z,9.77
2023-03-13T21:10:21.332Z,10.87
2023-03-13T21:12:50.046Z,8.97
2023-03-13T21:15:18.588Z,9.20
2023-03-13T21:17:46.978Z,10.47
2023-03-13T21:20:15.907Z,8.47
2023-03-13T21:22:45.765Z,7.13
2023-03-13T21:25:14.513Z,8.60
2023-03-13T21:27:44.853Z,11.40
2023-03-13T21:30:15.498Z,10.63
2023-03-13T21:32:44.106Z,6.83
2023-03-13T21:35:13.394Z,13.23
2023-03-13T21:37:42.921Z,18.73
2023-03-13T21:40:14.123Z,6.50
2023-03-13T21:42:43.557Z,5.47
2023-03-13T21:45:13.014Z,8.07
2023-03-13T21:47:41.671Z,11.73
2023-03-13T21:50:11.330Z,9.17
2023-03-13T21:52:42.351Z,10.33
2023-03-13T21:55:14.105Z,6.33
2023-03-13T21:57:42.588Z,9.40
2023-03-13T22:00:14.310Z,9.90
2023-03-13T22:02:43.525Z,7.67
2023-03-13T22:05:12.621Z,10.63
2023-03-13T22:07:41.082Z,7.67
2023-03-13T22:10:10.635Z,8.07
2023-03-13T22:12:40.505Z,7.97
2023-03-13T22:15:11.130Z,11.67
2023-03-13T22:17:39.742Z,7.67
2023-03-13T22:20:10.190Z,16.33
2023-03-13T22:22:38.577Z,6.77
2023-03-13T22:25:07.645Z,7.37
2023-03-13T22:27:36.529Z,5.67
2023-03-13T22:30:07.885Z,7.03
2023-03-13T22:32:36.367Z,7.97
2023-03-13T22:35:05.471Z,10.77
2023-03-13T22:37:33.911Z,11.97
2023-03-13T22:40:02.559Z,6.63
2023-03-13T22:42:30.912Z,10.50
2023-03-13T22:44:59.250Z,5.43
2023-03-13T22:47:29.106Z,9.50
2023-03-13T22:49:57.490Z,9.53
2023-03-13T22:52:30.773Z,10.93
2023-03-13T22:54:59.255Z,9.43
2023-03-13T22:57:29.273Z,9.63
2023-03-13T22:59:59.231Z,6.40
2023-03-13T23:02:32.046Z,9.67
2023-03-13T23:05:01.382Z,11.77
2023-03-13T23:07:32.461Z,11.30
2023-03-13T23:10:00.895Z,7.40
2023-03-13T23:12:30.989Z,8.80
2023-03-13T23:15:02.114Z,10.23
2023-03-13T23:17:34.244Z,7.77
2023-03-13T23:20:05.185Z,7.37
2023-03-13T23:22:34.884Z,8.43
2023-03-13T23:25:03.298Z,9.67
2023-03-13T23:27:32.190Z,8.30
2023-03-13T23:30:04.272Z,10.63
2023-03-13T23:32:37.845Z,8.73
2023-03-13T23:35:07.701Z,8.83
2023-03-13T23:37:36.735Z,9.07
2023-03-13T23:40:10.416Z,11.60
2023-03-13T23:42:38.894Z,7.73
2023-03-13T23:45:09.257Z,8.80
2023-03-13T23:47:39.121Z,8.23
2023-03-13T23:50:07.775Z,8.20
2023-03-13T23:52:36.696Z,11.00
2023-03-13T23:55:06.544Z,9.53
2023-03-13T23:57:37.674Z,13.63
